createdAt,value
2023-01-03T00:01:52.668Z,13.73
2023-01-03T00:04:20.060Z,19.13
2023-01-03T00:06:48.848Z,13.73
2023-01-03T00:09:17.550Z,16.45
2023-01-03T00:11:46.879Z,13.85
2023-01-03T00:14:17.164Z,13.20
2023-01-03T00:19:14.153Z,12.98
2023-01-03T00:21:42.070Z,11.70
2023-01-03T00:24:09.454Z,10.25
2023-01-03T00:26:36.666Z,10.27
2023-01-03T00:29:03.393Z,13.85
2023-01-03T00:31:30.358Z,11.25
2023-01-03T00:33:56.950Z,10.68
2023-01-03T00:36:23.483Z,9.90
2023-01-03T00:38:50.008Z,10.93
2023-01-03T00:41:18.294Z,5.60
2023-01-03T00:43:46.907Z,4.28
2023-01-03T00:46:16.733Z,3.83
2023-01-03T00:48:44.317Z,8.40
2023-01-03T00:51:15.699Z,3.53
2023-01-03T00:53:43.482Z,2.88
2023-01-03T00:56:14.090Z,2.58
2023-01-03T00:58:41.326Z,3.60
2023-01-03T01:01:11.154Z,2.38
2023-01-03T01:03:40.786Z,1.85
2023-01-03T01:06:28.104Z,2.13
2023-01-03T01:08:55.997Z,1.98
2023-01-03T01:11:23.328Z,1.98
2023-01-03T01:13:50.051Z,2.10
2023-01-03T01:16:25.265Z,1.88
2023-01-03T01:18:52.488Z,0.90
2023-01-03T01:21:22.415Z,1.27
2023-01-03T01:23:49.142Z,2.00
2023-01-03T01:26:19.192Z,1.23
2023-01-03T01:31:15.026Z,1.15
2023-01-03T01:33:41.834Z,1.20
2023-01-03T01:36:11.085Z,0.82
2023-01-03T01:38:37.641Z,1.27
2023-01-03T01:41:04.503Z,2.95
2023-01-03T01:43:31.171Z,1.17
2023-01-03T01:45:59.291Z,0.93
2023-01-03T01:48:25.970Z,0.85
2023-01-03T01:50:54.928Z,1.15
2023-01-03T01:53:28.737Z,0.98
2023-01-03T01:56:00.141Z,1.52
2023-01-03T01:58:31.245Z,0.70
2023-01-03T02:00:58.535Z,1.67
2023-01-03T02:03:25.047Z,3.00
2023-01-03T02:05:53.799Z,3.35
2023-01-03T02:08:21.192Z,0.95
2023-01-03T02:11:09.352Z,2.08
2023-01-03T02:14:13.562Z,1.60
2023-01-03T02:16:58.377Z,1.98
2023-01-03T02:19:46.208Z,2.28
2023-01-03T02:22:36.857Z,1.13
2023-01-03T02:25:27.748Z,0.65
2023-01-03T02:28:30.368Z,2.15
2023-01-03T02:31:00.827Z,0.50
2023-01-03T02:33:33.557Z,0.70
2023-01-03T02:36:08.431Z,0.50
2023-01-03T02:38:50.972Z,2.30
2023-01-03T02:41:24.477Z,2.65
2023-01-03T02:43:53.012Z,1.67
2023-01-03T02:46:25.670Z,1.08
2023-01-03T02:49:09.107Z,0.40
2023-01-03T02:51:39.316Z,0.52
2023-01-03T02:54:09.051Z,1.42
2023-01-03T02:56:44.013Z,0.85
2023-01-03T02:59:17.002Z,1.73
2023-01-03T03:01:43.955Z,1.30
2023-01-03T03:04:13.997Z,0.80
2023-01-03T03:06:46.004Z,0.65
2023-01-03T03:09:12.512Z,1.05
2023-01-03T03:11:40.978Z,1.33
2023-01-03T03:14:14.648Z,1.10
2023-01-03T03:16:47.335Z,2.03
2023-01-03T03:19:31.328Z,1.80
2023-01-03T03:21:57.840Z,2.17
2023-01-03T03:24:29.009Z,0.98
2023-01-03T03:26:56.220Z,2.78
2023-01-03T03:29:22.783Z,1.52
2023-01-03T03:31:50.543Z,4.55
2023-01-03T03:34:27.843Z,0.60
2023-01-03T03:37:05.254Z,2.22
2023-01-03T03:39:32.648Z,1.13
2023-01-03T03:42:18.305Z,1.33
2023-01-03T03:44:45.053Z,1.20
2023-01-03T03:47:32.851Z,1.85
2023-01-03T03:50:07.578Z,0.75
2023-01-03T03:52:34.931Z,0.68
2023-01-03T03:55:08.959Z,1.00
2023-01-03T03:57:47.376Z,1.17
2023-01-03T04:00:26.831Z,1.10
2023-01-03T04:02:54.618Z,0.50
2023-01-03T04:05:23.662Z,1.55
2023-01-03T04:07:52.479Z,1.38
2023-01-03T04:10:19.758Z,0.57
2023-01-03T04:12:50.435Z,1.05
2023-01-03T04:15:19.702Z,0.85
2023-01-03T04:17:46.317Z,0.88
2023-01-03T04:20:13.569Z,1.38
2023-01-03T04:22:40.084Z,0.85
2023-01-03T04:25:07.479Z,1.42
2023-01-03T04:27:34.240Z,0.50
2023-01-03T04:30:00.760Z,0.45
2023-01-03T04:32:27.348Z,0.40
2023-01-03T04:34:53.844Z,1.13
2023-01-03T04:37:20.410Z,0.70
2023-01-03T04:39:46.870Z,0.93
2023-01-03T04:42:13.428Z,0.38
2023-01-03T04:44:39.926Z,0.73
2023-01-03T04:47:06.500Z,1.05
2023-01-03T04:49:33.108Z,2.25
2023-01-03T04:51:59.564Z,2.22
2023-01-03T04:54:26.111Z,0.98
2023-01-03T04:56:52.594Z,3.70
2023-01-03T04:59:19.144Z,1.95
2023-01-03T05:01:46.054Z,1.23
2023-01-03T05:04:12.726Z,1.48
2023-01-03T05:06:39.395Z,1.40
2023-01-03T05:09:05.879Z,1.15
2023-01-03T05:11:32.401Z,3.00
2023-01-03T05:13:58.871Z,2.28
2023-01-03T05:16:28.021Z,1.05
2023-01-03T05:18:56.355Z,1.75
2023-01-03T05:21:23.346Z,0.73
2023-01-03T05:23:49.819Z,0.57
2023-01-03T05:26:18.706Z,1.05
2023-01-03T05:28:47.544Z,1.65
2023-01-03T05:31:14.144Z,2.05
2023-01-03T05:33:41.716Z,0.73
2023-01-03T05:36:09.030Z,2.05
2023-01-03T05:38:37.660Z,0.77
2023-01-03T05:41:04.881Z,2.08
2023-01-03T05:43:31.626Z,3.33
2023-01-03T05:45:58.172Z,1.23
2023-01-03T05:48:24.991Z,2.58
2023-01-03T05:50:51.541Z,2.13
2023-01-03T05:53:18.171Z,1.17
2023-01-03T05:55:44.820Z,3.67
2023-01-03T05:58:12.072Z,0.60
2023-01-03T06:00:38.848Z,2.03
2023-01-03T06:03:05.438Z,2.08
2023-01-03T06:05:32.062Z,2.42
2023-01-03T06:08:01.710Z,1.40
2023-01-03T06:10:28.777Z,0.50
2023-01-03T06:12:55.442Z,3.25
2023-01-03T06:15:22.070Z,2.08
2023-01-03T06:17:48.566Z,0.95
2023-01-03T06:20:15.224Z,2.10
2023-01-03T06:22:41.974Z,0.93
2023-01-03T06:25:08.759Z,1.67
2023-01-03T06:27:35.262Z,1.65
2023-01-03T06:30:01.924Z,2.30
2023-01-03T06:32:28.437Z,1.20
2023-01-03T06:34:54.911Z,2.88
2023-01-03T06:37:21.514Z,3.13
2023-01-03T06:39:48.075Z,0.90
2023-01-03T06:42:14.590Z,0.50
2023-01-03T06:44:41.102Z,0.45
2023-01-03T06:47:08.333Z,1.35
2023-01-03T06:49:34.992Z,1.25
2023-01-03T06:52:03.145Z,3.38
2023-01-03T06:54:31.864Z,1.75
2023-01-03T06:56:58.868Z,2.55
2023-01-03T06:59:25.693Z,2.25
2023-01-03T07:01:53.370Z,1.50
2023-01-03T07:04:23.183Z,0.68
2023-01-03T07:06:50.266Z,0.65
2023-01-03T07:09:17.149Z,0.50
2023-01-03T07:11:43.789Z,1.27
2023-01-03T07:14:11.568Z,1.13
2023-01-03T07:16:42.988Z,0.88
2023-01-03T07:19:14.087Z,1.27
2023-01-03T07:21:40.749Z,1.55
2023-01-03T07:24:08.454Z,0.60
2023-01-03T07:26:35.592Z,1.20
2023-01-03T07:29:05.150Z,2.85
2023-01-03T07:31:31.812Z,0.77
2023-01-03T07:33:59.059Z,0.90
2023-01-03T07:36:25.878Z,1.45
2023-01-03T07:38:53.933Z,0.70
2023-01-03T07:41:20.460Z,2.65
2023-01-03T07:43:49.021Z,1.50
2023-01-03T07:46:22.744Z,2.88
2023-01-03T07:48:54.838Z,1.13
2023-01-03T07:51:22.035Z,1.77
2023-01-03T07:53:52.873Z,3.63
2023-01-03T07:56:20.520Z,1.80
2023-01-03T07:58:48.246Z,1.95
2023-01-03T08:01:18.154Z,2.17
2023-01-03T08:03:45.325Z,2.25
2023-01-03T08:06:14.246Z,2.00
2023-01-03T08:08:41.062Z,1.95
2023-01-03T08:11:09.129Z,3.03
2023-01-03T08:13:35.744Z,2.78
2023-01-03T08:16:02.437Z,1.20
2023-01-03T08:18:28.980Z,3.42
2023-01-03T08:20:56.416Z,2.97
2023-01-03T08:23:23.698Z,3.75
2023-01-03T08:25:50.718Z,3.63
2023-01-03T08:28:17.468Z,2.63
2023-01-03T08:30:48.926Z,1.77
2023-01-03T08:33:17.238Z,2.97
2023-01-03T08:35:47.087Z,3.63
2023-01-03T08:38:17.561Z,1.50
2023-01-03T08:40:44.989Z,2.67
2023-01-03T08:43:11.949Z,2.45
2023-01-03T08:45:38.871Z,2.28
2023-01-03T08:48:06.969Z,1.70
2023-01-03T08:50:34.052Z,1.75
2023-01-03T08:53:00.635Z,2.17
2023-01-03T08:55:27.222Z,3.17
2023-01-03T08:57:54.044Z,2.30
2023-01-03T09:00:20.689Z,1.77
2023-01-03T09:02:47.279Z,2.05
2023-01-03T09:05:13.901Z,1.63
2023-01-03T09:07:40.429Z,1.48
2023-01-03T09:10:07.300Z,1.77
2023-01-03T09:12:33.918Z,1.27
2023-01-03T09:15:02.733Z,1.83
2023-01-03T09:17:29.819Z,2.42
2023-01-03T09:19:56.280Z,2.40
2023-01-03T09:22:24.003Z,3.13
2023-01-03T09:24:51.122Z,1.95
2023-01-03T09:27:17.645Z,2.58
2023-01-03T09:29:46.904Z,5.70
2023-01-03T09:32:15.990Z,1.35
2023-01-03T09:34:42.836Z,5.05
2023-01-03T09:37:09.306Z,2.47
2023-01-03T09:39:35.826Z,2.63
2023-01-03T09:42:04.800Z,2.33
2023-01-03T09:44:36.094Z,2.47
2023-01-03T09:47:03.113Z,2.95
2023-01-03T09:49:29.628Z,2.92
2023-01-03T09:51:56.314Z,3.33
2023-01-03T09:54:27.447Z,3.38
2023-01-03T09:56:53.937Z,3.20
2023-01-03T09:59:20.423Z,4.05
2023-01-03T10:02:21.223Z,3.90
2023-01-03T10:04:58.853Z,3.65
2023-01-03T10:07:44.135Z,2.58
2023-01-03T10:10:16.754Z,4.32
2023-01-03T10:13:07.977Z,2.58
2023-01-03T10:16:13.818Z,3.50
2023-01-03T10:19:06.114Z,1.98
2023-01-03T10:21:35.306Z,1.90
2023-01-03T10:24:01.994Z,2.53
2023-01-03T10:26:40.680Z,2.20
2023-01-03T10:29:08.634Z,2.90
2023-01-03T10:32:15.980Z,3.25
2023-01-03T10:34:42.730Z,4.20
2023-01-03T10:37:17.223Z,3.47
2023-01-03T10:39:43.976Z,4.22
2023-01-03T10:42:17.838Z,4.28
2023-01-03T10:45:00.250Z,3.78
2023-01-03T10:47:27.095Z,2.55
2023-01-03T10:50:04.795Z,3.05
2023-01-03T10:52:40.944Z,2.90
2023-01-03T10:55:14.507Z,2.88
2023-01-03T10:57:45.729Z,8.48
2023-01-03T11:00:27.496Z,5.63
2023-01-03T11:02:55.540Z,4.35
2023-01-03T11:05:25.034Z,2.72
2023-01-03T11:07:56.142Z,2.95
2023-01-03T11:10:25.481Z,2.85
2023-01-03T11:12:52.793Z,3.27
2023-01-03T11:15:19.374Z,3.72
2023-01-03T11:17:56.956Z,3.15
2023-01-03T11:20:43.261Z,3.53
2023-01-03T11:23:18.133Z,3.90
2023-01-03T11:25:54.505Z,2.83
2023-01-03T11:28:49.074Z,2.65
2023-01-03T11:31:48.031Z,3.85
2023-01-03T11:34:55.091Z,5.90
2023-01-03T11:37:38.069Z,4.28
2023-01-03T11:40:39.029Z,3.33
2023-01-03T11:43:47.572Z,4.60
2023-01-03T11:46:47.695Z,4.25
2023-01-03T11:49:23.288Z,5.10
2023-01-03T11:51:56.982Z,4.13
2023-01-03T11:54:38.704Z,5.90
2023-01-03T11:57:28.542Z,4.40
2023-01-03T12:00:19.881Z,3.25
2023-01-03T12:03:00.923Z,4.15
2023-01-03T12:05:40.919Z,6.20
2023-01-03T12:08:25.979Z,4.43
2023-01-03T12:11:15.789Z,5.07
2023-01-03T12:13:56.657Z,4.20
2023-01-03T12:16:51.901Z,3.97
2023-01-03T12:19:39.304Z,5.60
2023-01-03T12:22:24.367Z,4.43
2023-01-03T12:25:04.476Z,4.00
2023-01-03T12:27:37.210Z,3.65
2023-01-03T12:30:35.678Z,4.82
2023-01-03T12:33:19.399Z,4.22
2023-01-03T12:35:57.768Z,4.55
2023-01-03T12:38:29.949Z,5.20
2023-01-03T12:41:06.281Z,4.85
2023-01-03T12:43:49.047Z,4.72
2023-01-03T12:46:23.876Z,7.88
2023-01-03T12:48:58.062Z,6.80
2023-01-03T12:51:24.679Z,6.47
2023-01-03T12:53:57.741Z,4.50
2023-01-03T12:56:54.525Z,4.65
2023-01-03T12:59:49.058Z,5.15
2023-01-03T13:02:24.962Z,5.07
2023-01-03T13:04:55.277Z,4.40
2023-01-03T13:10:00.568Z,3.58
2023-01-03T13:12:32.136Z,4.38
2023-01-03T13:15:12.191Z,5.28
2023-01-03T13:17:47.135Z,3.80
2023-01-03T13:20:34.122Z,3.80
2023-01-03T13:23:27.715Z,2.60
2023-01-03T13:26:06.293Z,3.72
2023-01-03T13:28:39.734Z,3.15
2023-01-03T13:31:17.701Z,2.88
2023-01-03T13:33:57.596Z,3.05
2023-01-03T13:36:24.832Z,4.28
2023-01-03T13:38:51.651Z,3.08
2023-01-03T13:41:38.474Z,2.05
2023-01-03T13:44:15.473Z,7.10
2023-01-03T13:46:44.635Z,3.03
2023-01-03T13:49:18.640Z,5.32
2023-01-03T13:51:48.072Z,3.45
2023-01-03T13:54:17.647Z,4.13
2023-01-03T13:56:44.104Z,4.65
2023-01-03T13:59:10.587Z,4.30
2023-01-03T14:01:47.818Z,5.82
2023-01-03T14:04:41.234Z,4.28
2023-01-03T14:07:33.014Z,4.20
2023-01-03T14:09:59.426Z,4.40
2023-01-03T14:12:44.811Z,4.80
2023-01-03T14:15:25.288Z,3.97
2023-01-03T14:17:58.195Z,4.25
2023-01-03T14:20:29.046Z,3.75
2023-01-03T14:22:55.920Z,4.43
2023-01-03T14:25:32.234Z,4.38
2023-01-03T14:28:01.463Z,4.53
2023-01-03T14:30:34.420Z,4.65
2023-01-03T14:33:01.002Z,5.75
2023-01-03T14:35:38.044Z,5.70
2023-01-03T14:38:07.317Z,4.13
2023-01-03T14:40:34.340Z,4.13
2023-01-03T14:43:04.246Z,4.75
2023-01-03T14:45:30.808Z,4.32
2023-01-03T14:47:57.432Z,4.78
2023-01-03T14:50:30.549Z,3.17
2023-01-03T14:53:01.981Z,3.15
2023-01-03T14:55:32.943Z,4.00
2023-01-03T14:58:02.670Z,5.45
2023-01-03T15:00:33.302Z,5.60
2023-01-03T15:03:01.482Z,5.88
2023-01-03T15:05:33.715Z,6.50
2023-01-03T15:08:12.762Z,8.02
2023-01-03T15:10:39.206Z,9.80
2023-01-03T15:13:17.315Z,6.75
2023-01-03T15:15:53.662Z,8.57
2023-01-03T15:18:22.630Z,8.25
2023-01-03T15:20:50.938Z,7.50
2023-01-03T15:23:37.649Z,9.32
2023-01-03T15:26:16.577Z,8.93
2023-01-03T15:28:55.216Z,7.63
2023-01-03T15:31:30.499Z,9.20
2023-01-03T15:34:14.604Z,11.48
2023-01-03T15:36:41.540Z,12.65
2023-01-03T15:39:21.904Z,12.00
2023-01-03T15:41:49.126Z,11.25
2023-01-03T15:44:25.062Z,11.88
2023-01-03T15:46:52.000Z,13.73
2023-01-03T15:49:23.282Z,10.82
2023-01-03T15:51:49.919Z,11.27
2023-01-03T15:54:18.404Z,15.18
2023-01-03T15:56:57.134Z,12.65
2023-01-03T16:01:54.790Z,11.75
2023-01-03T16:04:21.815Z,9.60
2023-01-03T16:06:48.386Z,10.25
2023-01-03T16:09:15.275Z,10.90
2023-01-03T16:11:42.349Z,12.50
2023-01-03T16:14:16.989Z,11.20
2023-01-03T16:16:48.859Z,11.57
2023-01-03T16:19:25.070Z,10.90
2023-01-03T16:22:24.405Z,10.95
2023-01-03T16:24:41.189Z,12.13
2023-01-03T16:27:24.493Z,11.65
2023-01-03T16:29:51.940Z,11.88
2023-01-03T16:32:19.954Z,11.05
2023-01-03T16:34:46.842Z,12.63
2023-01-03T16:37:13.382Z,14.63
2023-01-03T16:39:47.719Z,12.52
2023-01-03T16:42:15.074Z,14.25
2023-01-03T16:44:43.548Z,15.05
2023-01-03T16:47:22.735Z,13.18
2023-01-03T16:50:16.836Z,13.32
2023-01-03T16:52:46.641Z,14.30
2023-01-03T16:55:31.534Z,13.77
2023-01-03T16:57:58.593Z,13.88
2023-01-03T17:00:27.770Z,14.90
2023-01-03T17:02:57.570Z,20.92
2023-01-03T17:05:25.539Z,14.75
2023-01-03T17:08:01.660Z,13.98
2023-01-03T17:10:37.167Z,16.60
2023-01-03T17:13:12.128Z,21.85
2023-01-03T17:15:40.699Z,27.05
2023-01-03T17:18:17.896Z,19.92
2023-01-03T17:20:44.473Z,21.02
2023-01-03T17:23:11.046Z,19.48
2023-01-03T17:25:39.220Z,19.15
2023-01-03T17:28:05.905Z,20.20
2023-01-03T17:30:32.483Z,22.65
2023-01-03T17:32:59.022Z,26.02
2023-01-03T17:35:26.000Z,26.73
2023-01-03T17:38:23.964Z,24.48
2023-01-03T17:40:41.950Z,30.10
2023-01-03T17:43:16.391Z,25.98
2023-01-03T17:45:43.009Z,37.33
2023-01-03T17:48:13.842Z,25.92
2023-01-03T17:50:40.918Z,29.13
2023-01-03T17:53:09.588Z,49.05
2023-01-03T17:55:36.261Z,57.72
2023-01-03T17:58:03.223Z,41.97
2023-01-03T18:00:30.819Z,44.10
2023-01-03T18:02:57.702Z,38.97
2023-01-03T18:05:27.696Z,32.22
2023-01-03T18:07:58.920Z,28.73
2023-01-03T18:10:33.109Z,29.67
2023-01-03T18:12:59.728Z,34.13
2023-01-03T18:15:26.186Z,30.50
2023-01-03T18:17:52.680Z,31.00
2023-01-03T18:20:19.716Z,24.50
2023-01-03T18:22:46.977Z,26.52
2023-01-03T18:25:22.274Z,25.17
2023-01-03T18:28:00.526Z,22.27
2023-01-03T18:30:27.414Z,23.25
2023-01-03T18:32:53.896Z,21.05
2023-01-03T18:35:28.463Z,21.60
2023-01-03T18:37:59.344Z,17.67
2023-01-03T18:40:26.540Z,18.48
2023-01-03T18:42:55.581Z,16.55
2023-01-03T18:45:22.125Z,18.33
2023-01-03T18:47:48.945Z,14.13
2023-01-03T18:50:19.496Z,12.93
2023-01-03T18:52:46.862Z,14.10
2023-01-03T18:55:19.642Z,12.68
2023-01-03T18:57:46.536Z,12.95
2023-01-03T19:00:22.147Z,12.82
2023-01-03T19:02:48.911Z,15.20
2023-01-03T19:05:16.134Z,14.30
2023-01-03T19:07:45.808Z,12.30
2023-01-03T19:10:22.611Z,10.80
2023-01-03T19:12:50.959Z,11.57
2023-01-03T19:15:21.520Z,10.82
2023-01-03T19:17:48.209Z,11.40
2023-01-03T19:20:17.296Z,16.05
2023-01-03T19:22:49.960Z,20.10
2023-01-03T19:25:26.254Z,15.18
2023-01-03T19:27:57.487Z,17.88
2023-01-03T19:30:37.275Z,13.70
2023-01-03T19:33:13.041Z,15.13
2023-01-03T19:35:39.789Z,20.83
2023-01-03T19:38:06.360Z,18.55
2023-01-03T19:40:36.609Z,17.23
2023-01-03T19:45:41.005Z,14.43
2023-01-03T19:48:16.678Z,16.27
2023-01-03T19:50:43.231Z,19.05
2023-01-03T19:53:11.453Z,17.30
2023-01-03T19:55:40.989Z,18.63
2023-01-03T19:58:27.878Z,23.77
2023-01-03T20:00:57.163Z,19.67
2023-01-03T20:03:38.217Z,21.10
2023-01-03T20:06:05.938Z,13.73
2023-01-03T20:08:32.534Z,13.23
2023-01-03T20:10:59.094Z,15.82
2023-01-03T20:13:27.004Z,15.35
2023-01-03T20:15:55.407Z,13.75
2023-01-03T20:18:24.729Z,12.23
2023-01-03T20:20:52.293Z,21.60
2023-01-03T20:23:19.003Z,12.57
2023-01-03T20:25:45.578Z,15.27
2023-01-03T20:28:19.996Z,14.82
2023-01-03T20:30:46.606Z,12.93
2023-01-03T20:33:13.340Z,19.13
2023-01-03T20:38:29.581Z,15.40
2023-01-03T20:40:56.595Z,12.07
2023-01-03T20:43:23.436Z,18.20
2023-01-03T20:45:53.136Z,14.70
2023-01-03T20:48:25.408Z,15.13
2023-01-03T20:50:52.398Z,23.30
2023-01-03T20:53:21.646Z,26.92
2023-01-03T20:55:49.308Z,20.45
2023-01-03T20:58:17.546Z,19.80
2023-01-03T21:00:44.654Z,19.65
2023-01-03T21:03:11.458Z,16.77
2023-01-03T21:05:38.481Z,16.02
2023-01-03T21:08:15.205Z,16.55
2023-01-03T21:10:45.637Z,16.63
2023-01-03T21:13:12.182Z,18.23
2023-01-03T21:15:38.653Z,17.60
2023-01-03T21:18:11.807Z,15.25
2023-01-03T21:20:38.727Z,18.35
2023-01-03T21:23:05.503Z,15.32
2023-01-03T21:25:34.444Z,18.80
2023-01-03T21:28:01.928Z,17.17
2023-01-03T21:30:30.549Z,20.75
2023-01-03T21:32:57.197Z,19.45
2023-01-03T21:35:24.415Z,16.50
2023-01-03T21:37:55.166Z,17.13
2023-01-03T21:40:24.021Z,12.50
2023-01-03T21:42:52.546Z,10.52
2023-01-03T21:45:19.232Z,11.23
2023-01-03T21:47:45.745Z,12.60
2023-01-03T21:50:12.310Z,12.98
2023-01-03T21:52:38.855Z,8.23
2023-01-03T21:55:05.805Z,8.45
2023-01-03T21:57:32.543Z,9.77
2023-01-03T21:59:59.129Z,10.13
2023-01-03T22:02:25.792Z,11.02
2023-01-03T22:04:52.334Z,9.93
2023-01-03T22:07:19.216Z,11.95
2023-01-03T22:09:45.691Z,11.85
2023-01-03T22:12:15.354Z,9.50
2023-01-03T22:17:08.887Z,11.02
2023-01-03T22:19:35.391Z,13.27
2023-01-03T22:22:06.496Z,11.18
2023-01-03T22:24:33.073Z,9.63
2023-01-03T22:26:59.595Z,11.18
2023-01-03T22:29:26.154Z,10.50
2023-01-03T22:31:52.713Z,11.55
2023-01-03T22:34:19.386Z,13.27
2023-01-03T22:36:45.918Z,9.35
2023-01-03T22:39:12.417Z,12.57
2023-01-03T22:41:39.011Z,10.70
2023-01-03T22:44:05.594Z,11.45
2023-01-03T22:46:32.378Z,11.23
2023-01-03T22:48:58.909Z,10.77
2023-01-03T22:51:25.411Z,12.23
2023-01-03T22:53:51.914Z,11.23
2023-01-03T22:56:18.452Z,11.50
2023-01-03T22:58:45.667Z,12.90
2023-01-03T23:01:17.679Z,12.95
2023-01-03T23:03:45.885Z,14.40
2023-01-03T23:06:17.772Z,14.30
2023-01-03T23:08:44.361Z,13.45
2023-01-03T23:11:15.693Z,14.75
2023-01-03T23:13:42.146Z,13.55
2023-01-03T23:16:08.831Z,12.98
2023-01-03T23:18:35.379Z,13.32
2023-01-03T23:21:05.727Z,13.88
2023-01-03T23:26:01.657Z,14.05
2023-01-03T23:28:28.501Z,11.45
2023-01-03T23:30:55.035Z,12.43
2023-01-03T23:33:21.720Z,12.25
2023-01-03T23:35:48.319Z,14.50
2023-01-03T23:38:14.815Z,14.85
2023-01-03T23:40:42.220Z,13.18
2023-01-03T23:43:11.889Z,14.90
2023-01-03T23:45:38.491Z,16.13
2023-01-03T23:48:05.433Z,15.07
2023-01-03T23:50:32.536Z,15.77
2023-01-03T23:52:59.110Z,18.42
2023-01-03T23:55:25.592Z,17.83
2023-01-03T23:57:52.189Z,16.83
